createdAt,value
2018-10-18T00:02:06.959Z,91.56
2018-10-18T00:04:35.702Z,92.27
2018-10-18T00:07:04.551Z,91.97
2018-10-18T00:09:33.199Z,92.44
2018-10-18T00:12:01.820Z,91.77
2018-10-18T00:14:30.540Z,92.05
2018-10-18T00:16:59.077Z,91.31
2018-10-18T00:19:27.685Z,92.09
2018-10-18T00:21:56.228Z,92.01
2018-10-18T00:24:24.788Z,93.93
2018-10-18T00:26:53.364Z,93.31
2018-10-18T00:29:21.989Z,92.24
2018-10-18T00:31:50.585Z,92.05
2018-10-18T00:34:19.093Z,92.45
2018-10-18T00:36:47.776Z,91.62
2018-10-18T00:39:16.399Z,92.76
2018-10-18T00:41:45.280Z,93.78
2018-10-18T00:44:13.996Z,93.73
2018-10-18T00:46:42.560Z,92.89
2018-10-18T00:49:11.148Z,92.81
2018-10-18T00:51:39.694Z,94.65
2018-10-18T00:54:08.744Z,93.47
2018-10-18T00:56:37.348Z,93.21
2018-10-18T00:59:05.956Z,93.57
2018-10-18T01:01:34.487Z,92.99
2018-10-18T01:04:03.161Z,92.13
2018-10-18T01:06:31.972Z,93.17
2018-10-18T01:09:00.528Z,93.84
2018-10-18T01:11:29.152Z,94.70
2018-10-18T01:13:57.982Z,93.23
2018-10-18T01:16:26.572Z,93.65
2018-10-18T01:18:55.085Z,93.53
2018-10-18T01:21:23.774Z,92.40
2018-10-18T01:23:52.628Z,92.43
2018-10-18T01:26:21.153Z,92.46
2018-10-18T01:28:49.979Z,91.96
2018-10-18T01:31:18.651Z,92.43
2018-10-18T01:33:47.225Z,93.49
2018-10-18T01:36:16.013Z,93.93
2018-10-18T01:38:44.519Z,94.20
2018-10-18T01:41:13.084Z,94.04
2018-10-18T01:43:41.838Z,94.46
2018-10-18T01:46:10.792Z,94.48
2018-10-18T01:48:39.345Z,94.07
2018-10-18T01:51:08.054Z,94.00
2018-10-18T01:53:36.732Z,93.71
2018-10-18T01:56:05.724Z,94.03
2018-10-18T01:58:34.452Z,94.84
2018-10-18T02:01:03.010Z,94.01
2018-10-18T02:03:31.588Z,93.21
2018-10-18T02:06:00.350Z,93.11
2018-10-18T02:08:29.040Z,93.29
2018-10-18T02:10:57.624Z,92.87
2018-10-18T02:13:26.338Z,92.53
2018-10-18T02:15:55.251Z,92.41
2018-10-18T02:18:24.185Z,92.21
2018-10-18T02:20:53.152Z,92.55
2018-10-18T02:23:21.689Z,92.68
2018-10-18T02:25:50.208Z,93.75
2018-10-18T02:28:18.895Z,93.75
2018-10-18T02:30:47.501Z,93.89
2018-10-18T02:33:16.097Z,94.28
2018-10-18T02:35:44.844Z,93.69
2018-10-18T02:38:13.421Z,93.88
2018-10-18T02:40:42.039Z,93.39
2018-10-18T02:43:10.881Z,94.42
2018-10-18T02:45:39.628Z,94.71
2018-10-18T02:48:08.245Z,94.61
2018-10-18T02:50:36.765Z,93.73
2018-10-18T02:53:05.485Z,94.43
2018-10-18T02:55:34.064Z,94.54
2018-10-18T02:58:02.710Z,93.34
2018-10-18T03:00:31.319Z,94.81
2018-10-18T03:02:59.908Z,93.63
2018-10-18T03:05:28.710Z,93.75
2018-10-18T03:07:57.483Z,93.57
2018-10-18T03:10:26.010Z,94.43
2018-10-18T03:12:54.708Z,94.08
2018-10-18T03:15:23.249Z,94.18
2018-10-18T03:17:51.866Z,94.01
2018-10-18T03:20:20.524Z,94.07
2018-10-18T03:22:49.161Z,94.39
2018-10-18T03:25:17.732Z,95.40
2018-10-18T03:27:46.412Z,94.60
2018-10-18T03:30:15.170Z,94.42
2018-10-18T03:32:43.617Z,95.03
2018-10-18T03:35:12.242Z,95.82
2018-10-18T03:37:41.037Z,94.05
2018-10-18T03:40:10.268Z,94.16
2018-10-18T03:42:38.860Z,94.25
2018-10-18T03:45:07.869Z,94.21
2018-10-18T03:47:36.413Z,94.23
2018-10-18T03:50:05.093Z,93.86
2018-10-18T03:52:33.736Z,94.19
2018-10-18T03:55:02.317Z,94.08
2018-10-18T03:57:30.969Z,94.80
2018-10-18T03:59:59.531Z,94.69
2018-10-18T04:02:28.121Z,94.29
2018-10-18T04:04:56.752Z,94.45
2018-10-18T04:07:25.372Z,94.68
2018-10-18T04:09:53.929Z,95.30
2018-10-18T04:12:22.631Z,95.33
2018-10-18T04:14:51.190Z,94.75
2018-10-18T04:17:19.813Z,95.79
2018-10-18T04:19:48.557Z,94.77
2018-10-18T04:22:17.145Z,95.64
2018-10-18T04:24:45.761Z,95.73
2018-10-18T04:27:14.628Z,94.54
2018-10-18T04:29:43.194Z,94.47
2018-10-18T04:32:11.752Z,94.59
2018-10-18T04:34:40.418Z,93.97
2018-10-18T04:37:09.065Z,93.48
2018-10-18T04:39:37.568Z,93.99
2018-10-18T04:42:06.568Z,95.16
2018-10-18T04:44:35.182Z,95.27
2018-10-18T04:47:03.789Z,95.35
2018-10-18T04:49:32.505Z,95.50
2018-10-18T04:52:01.229Z,95.44
2018-10-18T04:54:29.760Z,94.98
2018-10-18T04:56:58.560Z,95.68
2018-10-18T04:59:27.288Z,96.06
2018-10-18T05:01:55.849Z,95.26
2018-10-18T05:04:24.465Z,94.82
2018-10-18T05:06:53.076Z,94.64
2018-10-18T05:09:21.729Z,94.67
2018-10-18T05:11:50.372Z,94.38
2018-10-18T05:14:18.987Z,95.19
2018-10-18T05:16:47.678Z,95.34
2018-10-18T05:19:16.609Z,95.41
2018-10-18T05:21:45.250Z,95.18
2018-10-18T05:24:13.849Z,95.11
2018-10-18T05:26:42.600Z,95.93
2018-10-18T05:29:11.248Z,96.50
2018-10-18T05:31:39.856Z,96.17
2018-10-18T05:34:08.584Z,95.73
2018-10-18T05:36:37.133Z,95.34
2018-10-18T05:39:09.725Z,95.09
2018-10-18T05:41:38.319Z,94.20
2018-10-18T05:44:06.948Z,94.43
2018-10-18T05:46:35.691Z,93.79
2018-10-18T05:49:04.326Z,94.27
2018-10-18T05:51:32.840Z,94.73
2018-10-18T05:54:01.709Z,94.48
2018-10-18T05:56:30.188Z,93.85
2018-10-18T05:58:58.812Z,94.81
2018-10-18T06:01:27.373Z,95.16
2018-10-18T06:03:55.980Z,95.28
2018-10-18T06:06:24.800Z,95.62
2018-10-18T06:08:53.615Z,95.50
2018-10-18T06:11:27.760Z,95.37
2018-10-18T06:13:56.570Z,96.04
2018-10-18T06:16:26.152Z,96.19
2018-10-18T06:18:54.803Z,96.39
2018-10-18T06:21:24.299Z,95.71
2018-10-18T06:23:52.892Z,95.90
2018-10-18T06:26:21.660Z,96.02
2018-10-18T06:28:51.441Z,95.91
2018-10-18T06:31:19.973Z,96.31
2018-10-18T06:33:49.172Z,96.70
2018-10-18T06:36:17.716Z,97.31
2018-10-18T06:38:46.373Z,97.30
2018-10-18T06:41:15.005Z,97.06
2018-10-18T06:43:43.696Z,97.64
2018-10-18T06:46:13.916Z,96.76
2018-10-18T06:48:42.956Z,96.96
2018-10-18T06:51:11.952Z,97.06
2018-10-18T06:53:41.545Z,96.87
2018-10-18T06:56:10.274Z,96.84
2018-10-18T06:58:38.988Z,96.06
2018-10-18T07:01:07.576Z,95.07
2018-10-18T07:03:36.168Z,94.59
2018-10-18T07:06:05.092Z,94.26
2018-10-18T07:08:33.635Z,94.44
2018-10-18T07:11:02.432Z,94.38
2018-10-18T07:13:30.908Z,94.42
2018-10-18T07:15:59.628Z,94.04
2018-10-18T07:18:28.215Z,94.29
2018-10-18T07:20:56.872Z,93.31
2018-10-18T07:23:25.403Z,93.77
2018-10-18T07:25:54.152Z,93.79
2018-10-18T07:28:22.885Z,93.53
2018-10-18T07:30:51.494Z,93.88
2018-10-18T07:33:20.457Z,93.71
2018-10-18T07:35:49.072Z,93.03
2018-10-18T07:38:17.616Z,92.42
2018-10-18T07:40:46.448Z,92.45
2018-10-18T07:43:15.009Z,92.35
2018-10-18T07:45:43.760Z,91.85
2018-10-18T07:48:12.629Z,90.81
2018-10-18T07:50:41.321Z,90.69
2018-10-18T07:53:10.006Z,90.39
2018-10-18T07:55:38.527Z,90.64
2018-10-18T07:58:07.354Z,90.26
2018-10-18T08:00:36.128Z,91.15
2018-10-18T08:03:05.082Z,90.90
2018-10-18T08:05:33.717Z,90.04
2018-10-18T08:08:02.353Z,90.94
2018-10-18T08:10:31.028Z,90.13
2018-10-18T08:12:59.627Z,90.50
2018-10-18T08:15:28.198Z,90.24
2018-10-18T08:17:56.834Z,90.29
2018-10-18T08:20:25.440Z,91.99
2018-10-18T08:22:54.206Z,90.19
2018-10-18T08:25:22.829Z,93.51
2018-10-18T08:27:51.398Z,93.26
2018-10-18T08:30:20.001Z,92.32
2018-10-18T08:32:48.637Z,91.23
2018-10-18T08:35:17.282Z,91.19
2018-10-18T08:37:45.918Z,90.63
2018-10-18T08:40:14.619Z,89.03
2018-10-18T08:42:43.165Z,88.48
2018-10-18T08:45:12.492Z,88.01
2018-10-18T08:47:41.220Z,86.83
2018-10-18T08:50:11.690Z,85.93
2018-10-18T08:52:40.580Z,86.28
2018-10-18T08:55:11.985Z,85.10
2018-10-18T08:57:40.510Z,85.04
2018-10-18T09:00:10.702Z,84.93
2018-10-18T09:02:39.850Z,83.28
2018-10-18T09:05:09.072Z,83.58
2018-10-18T09:07:38.189Z,82.75
2018-10-18T09:10:07.952Z,81.14
2018-10-18T09:12:37.097Z,81.89
2018-10-18T09:15:07.173Z,81.89
2018-10-18T09:17:36.209Z,80.88
2018-10-18T09:20:05.353Z,80.31
2018-10-18T09:22:34.568Z,80.87
2018-10-18T09:25:03.301Z,80.18
2018-10-18T09:27:31.892Z,79.30
2018-10-18T09:30:00.500Z,78.58
2018-10-18T09:32:29.148Z,78.88
2018-10-18T09:34:57.876Z,78.85
2018-10-18T09:37:26.468Z,78.56
2018-10-18T09:39:55.125Z,78.05
2018-10-18T09:42:23.664Z,76.67
2018-10-18T09:44:52.415Z,77.37
2018-10-18T09:47:20.940Z,76.42
2018-10-18T09:49:49.605Z,75.30
2018-10-18T09:52:18.180Z,75.00
2018-10-18T09:54:46.809Z,74.84
2018-10-18T09:57:15.365Z,74.77
2018-10-18T09:59:44.430Z,74.81
2018-10-18T10:02:18.233Z,74.80
2018-10-18T10:04:46.869Z,74.88
2018-10-18T10:07:15.492Z,75.13
2018-10-18T10:09:43.984Z,75.10
2018-10-18T10:12:12.750Z,75.53
2018-10-18T10:14:41.488Z,74.45
2018-10-18T10:17:10.224Z,73.75
2018-10-18T10:19:38.761Z,73.73
2018-10-18T10:22:07.512Z,73.06
2018-10-18T10:24:36.100Z,74.00
2018-10-18T10:27:04.733Z,73.34
2018-10-18T10:29:33.304Z,73.07
2018-10-18T10:32:01.869Z,73.01
2018-10-18T10:34:30.940Z,72.33
2018-10-18T10:36:59.629Z,72.73
2018-10-18T10:39:28.230Z,71.87
2018-10-18T10:41:56.928Z,71.63
2018-10-18T10:44:25.460Z,71.73
2018-10-18T10:46:54.040Z,72.49
2018-10-18T10:49:23.125Z,71.65
2018-10-18T10:51:51.915Z,71.93
2018-10-18T10:54:20.496Z,71.14
2018-10-18T10:56:49.240Z,72.05
2018-10-18T10:59:19.217Z,71.56
2018-10-18T11:01:48.004Z,71.75
2018-10-18T11:04:16.650Z,71.34
2018-10-18T11:06:45.349Z,70.81
2018-10-18T11:09:14.013Z,70.23
2018-10-18T11:11:42.941Z,69.98
2018-10-18T11:14:11.620Z,69.76
2018-10-18T11:16:40.221Z,68.72
2018-10-18T11:19:09.032Z,69.58
2018-10-18T11:21:37.644Z,69.05
2018-10-18T11:24:06.367Z,69.11
2018-10-18T11:26:34.946Z,68.44
2018-10-18T11:29:03.615Z,69.37
2018-10-18T11:31:32.161Z,68.90
2018-10-18T11:34:01.016Z,68.03
2018-10-18T11:36:29.724Z,67.07
2018-10-18T11:38:58.270Z,67.10
2018-10-18T11:41:27.455Z,67.84
2018-10-18T11:43:56.012Z,67.37
2018-10-18T11:46:24.665Z,68.09
2018-10-18T11:48:53.805Z,67.77
2018-10-18T11:51:22.523Z,68.88
2018-10-18T11:53:51.133Z,66.77
2018-10-18T11:56:19.713Z,66.88
2018-10-18T11:58:48.320Z,67.42
2018-10-18T12:01:17.112Z,66.91
2018-10-18T12:03:46.007Z,68.08
2018-10-18T12:06:14.605Z,66.41
2018-10-18T12:08:43.161Z,66.02
2018-10-18T12:11:11.963Z,66.63
2018-10-18T12:13:41.322Z,66.78
2018-10-18T12:16:10.297Z,66.37
2018-10-18T12:18:38.953Z,66.23
2018-10-18T12:21:07.685Z,66.42
2018-10-18T12:23:36.348Z,65.46
2018-10-18T12:26:05.337Z,64.92
2018-10-18T12:28:34.253Z,65.42
2018-10-18T12:31:03.064Z,65.08
2018-10-18T12:33:31.956Z,65.20
2018-10-18T12:36:00.522Z,65.55
2018-10-18T12:38:29.317Z,65.15
2018-10-18T12:40:58.285Z,65.86
2018-10-18T12:43:26.793Z,64.77
2018-10-18T12:45:55.465Z,64.83
2018-10-18T12:48:33.847Z,66.46
2018-10-18T12:51:02.317Z,65.25
2018-10-18T12:53:31.032Z,64.62
2018-10-18T12:56:00.035Z,64.73
2018-10-18T12:58:28.643Z,64.57
2018-10-18T13:00:57.294Z,65.00
2018-10-18T13:03:26.057Z,67.21
2018-10-18T13:05:54.679Z,66.93
2018-10-18T13:08:23.230Z,66.74
2018-10-18T13:10:52.069Z,67.56
2018-10-18T13:13:20.652Z,67.50
2018-10-18T13:15:49.334Z,67.93
2018-10-18T13:18:18.849Z,67.67
2018-10-18T13:20:47.448Z,67.82
2018-10-18T13:23:16.113Z,67.34
2018-10-18T13:25:44.876Z,67.54
2018-10-18T13:28:13.557Z,67.10
2018-10-18T13:30:42.209Z,68.04
2018-10-18T13:33:10.997Z,67.20
2018-10-18T13:35:39.647Z,67.28
2018-10-18T13:38:08.320Z,66.90
2018-10-18T13:40:37.276Z,66.75
2018-10-18T13:43:06.048Z,66.59
2018-10-18T13:45:34.693Z,66.24
2018-10-18T13:48:03.737Z,66.27
2018-10-18T13:50:32.376Z,66.17
2018-10-18T13:53:01.369Z,65.95
2018-10-18T13:55:30.140Z,65.81
2018-10-18T13:57:58.722Z,66.15
2018-10-18T14:00:30.253Z,66.53
2018-10-18T14:02:58.959Z,66.40
2018-10-18T14:05:28.088Z,67.05
2018-10-18T14:07:57.312Z,67.60
2018-10-18T14:13:06.078Z,67.72
2018-10-18T14:15:34.863Z,68.42
2018-10-18T14:18:03.498Z,67.82
2018-10-18T14:20:33.179Z,68.39
2018-10-18T14:23:02.017Z,68.69
2018-10-18T14:25:30.628Z,69.18
2018-10-18T14:27:59.209Z,69.18
2018-10-18T14:30:27.968Z,68.56
2018-10-18T14:32:56.640Z,69.44
2018-10-18T14:35:25.364Z,69.21
2018-10-18T14:37:54.072Z,69.28
2018-10-18T14:40:22.702Z,69.19
2018-10-18T14:42:51.440Z,69.48
2018-10-18T14:45:20.111Z,69.40
2018-10-18T14:47:48.830Z,68.75
2018-10-18T14:50:17.644Z,68.17
2018-10-18T14:52:46.285Z,68.51
2018-10-18T14:55:14.964Z,68.78
2018-10-18T14:57:43.652Z,68.66
2018-10-18T15:00:13.425Z,68.03
2018-10-18T15:02:42.222Z,68.43
2018-10-18T15:05:11.850Z,68.20
2018-10-18T15:07:41.052Z,68.82
2018-10-18T15:10:13.181Z,69.08
2018-10-18T15:12:42.290Z,69.31
2018-10-18T15:15:12.304Z,69.73
2018-10-18T15:17:41.112Z,69.89
2018-10-18T15:20:10.765Z,68.92
2018-10-18T15:22:40.741Z,69.19
2018-10-18T15:25:10.492Z,69.31
2018-10-18T15:27:40.232Z,69.91
2018-10-18T15:30:09.835Z,70.79
2018-10-18T15:32:39.192Z,70.31
2018-10-18T15:35:09.309Z,70.62
2018-10-18T15:37:45.843Z,70.91
2018-10-18T15:40:14.468Z,71.33
2018-10-18T15:42:43.126Z,71.16
2018-10-18T15:45:11.858Z,70.74
2018-10-18T15:47:40.558Z,71.12
2018-10-18T15:50:10.856Z,71.24
2018-10-18T15:52:39.417Z,72.17
2018-10-18T15:55:08.657Z,72.52
2018-10-18T15:57:37.305Z,72.84
2018-10-18T16:00:08.107Z,72.59
2018-10-18T16:02:36.742Z,73.49
2018-10-18T16:05:05.892Z,73.67
2018-10-18T16:07:34.662Z,72.96
2018-10-18T16:10:03.514Z,73.33
2018-10-18T16:12:32.159Z,74.35
2018-10-18T16:15:00.853Z,73.87
2018-10-18T16:17:29.462Z,75.15
2018-10-18T16:19:58.081Z,74.69
2018-10-18T16:22:26.719Z,74.24
2018-10-18T16:24:55.285Z,75.13
2018-10-18T16:27:24.813Z,74.70
2018-10-18T16:29:53.396Z,75.45
2018-10-18T16:32:22.013Z,75.12
2018-10-18T16:34:50.724Z,76.03
2018-10-18T16:37:19.537Z,75.26
2018-10-18T16:39:48.061Z,76.30
2018-10-18T16:42:16.701Z,75.25
2018-10-18T16:44:45.413Z,76.30
2018-10-18T16:47:14.061Z,76.70
2018-10-18T16:49:42.703Z,77.07
2018-10-18T16:52:11.592Z,77.47
2018-10-18T16:54:40.336Z,78.61
2018-10-18T16:57:08.945Z,78.06
2018-10-18T16:59:37.682Z,78.74
2018-10-18T17:02:06.682Z,80.03
2018-10-18T17:04:35.379Z,80.20
2018-10-18T17:07:04.124Z,80.47
2018-10-18T17:09:32.668Z,80.23
2018-10-18T17:12:01.444Z,80.27
2018-10-18T17:14:30.249Z,82.03
2018-10-18T17:16:58.877Z,82.65
2018-10-18T17:19:27.490Z,82.29
2018-10-18T17:21:56.138Z,82.69
2018-10-18T17:24:24.703Z,82.24
2018-10-18T17:26:53.308Z,82.42
2018-10-18T17:29:21.993Z,82.60
2018-10-18T17:31:50.556Z,82.22
2018-10-18T17:34:19.607Z,82.01
2018-10-18T17:36:48.162Z,82.14
2018-10-18T17:39:20.342Z,83.87
2018-10-18T17:41:48.992Z,83.38
2018-10-18T17:44:17.638Z,84.33
2018-10-18T17:46:46.285Z,84.23
2018-10-18T17:49:15.017Z,85.33
2018-10-18T17:51:43.591Z,85.85
2018-10-18T17:54:12.169Z,86.69
2018-10-18T17:56:40.820Z,86.89
2018-10-18T17:59:09.423Z,89.03
2018-10-18T18:01:38.025Z,89.34
2018-10-18T18:04:07.224Z,89.44
2018-10-18T18:06:35.921Z,88.76
2018-10-18T18:09:05.066Z,88.96
2018-10-18T18:11:33.913Z,89.06
2018-10-18T18:14:02.756Z,89.24
2018-10-18T18:16:31.780Z,89.61
2018-10-18T18:19:01.012Z,89.08
2018-10-18T18:21:29.574Z,89.23
2018-10-18T18:23:58.172Z,89.49
2018-10-18T18:26:32.657Z,89.23
2018-10-18T18:28:55.585Z,89.40
2018-10-18T18:31:24.418Z,89.58
2018-10-18T18:33:53.233Z,89.90
2018-10-18T18:36:22.190Z,90.91
2018-10-18T18:38:50.846Z,90.20
2018-10-18T18:41:19.624Z,89.49
2018-10-18T18:43:48.228Z,89.99
2018-10-18T18:46:16.792Z,89.30
2018-10-18T18:48:45.571Z,89.28
2018-10-18T18:51:14.220Z,89.36
2018-10-18T18:53:42.740Z,92.51
2018-10-18T18:56:11.603Z,91.21
2018-10-18T18:58:40.189Z,90.77
2018-10-18T19:01:08.904Z,91.07
2018-10-18T19:03:37.727Z,92.16
2018-10-18T19:06:06.380Z,94.69
2018-10-18T19:08:34.949Z,94.32
2018-10-18T19:11:03.799Z,93.55
2018-10-18T19:13:32.428Z,93.86
2018-10-18T19:16:01.100Z,93.53
2018-10-18T19:18:29.909Z,91.26
2018-10-18T19:20:58.528Z,93.39
2018-10-18T19:23:27.292Z,92.85
2018-10-18T19:25:56.049Z,93.11
2018-10-18T19:28:24.669Z,94.11
2018-10-18T19:30:53.657Z,94.10
2018-10-18T19:33:22.249Z,93.51
2018-10-18T19:35:51.047Z,94.07
2018-10-18T19:38:19.786Z,93.14
2018-10-18T19:40:51.360Z,93.62
2018-10-18T19:43:19.932Z,94.16
2018-10-18T19:45:48.704Z,94.21
2018-10-18T19:48:17.750Z,95.76
2018-10-18T19:50:46.417Z,92.83
2018-10-18T19:53:14.997Z,92.91
2018-10-18T19:55:43.941Z,93.83
2018-10-18T19:58:12.554Z,93.73
2018-10-18T20:00:41.132Z,93.81
2018-10-18T20:03:09.849Z,93.15
2018-10-18T20:05:38.372Z,93.13
2018-10-18T20:08:07.002Z,92.38
2018-10-18T20:10:35.712Z,92.93
2018-10-18T20:13:04.489Z,93.84
2018-10-18T20:15:33.064Z,92.08
2018-10-18T20:18:02.089Z,93.46
2018-10-18T20:20:30.672Z,91.95
2018-10-18T20:22:59.268Z,91.67
2018-10-18T20:25:28.038Z,92.16
2018-10-18T20:27:56.645Z,92.61
2018-10-18T20:30:25.261Z,93.60
2018-10-18T20:32:53.945Z,94.42
2018-10-18T20:35:22.574Z,93.77
2018-10-18T20:37:51.104Z,94.18
2018-10-18T20:40:19.905Z,93.30
2018-10-18T20:42:48.656Z,93.73
2018-10-18T20:45:22.594Z,92.83
2018-10-18T20:47:51.316Z,93.04
2018-10-18T20:50:19.784Z,93.60
2018-10-18T20:52:48.521Z,95.00
2018-10-18T20:55:17.078Z,94.67
2018-10-18T20:57:45.709Z,94.88
2018-10-18T21:00:14.446Z,93.99
2018-10-18T21:02:43.088Z,93.12
2018-10-18T21:05:11.692Z,93.45
2018-10-18T21:07:40.413Z,94.34
2018-10-18T21:10:11.889Z,94.40
2018-10-18T21:12:40.440Z,93.97
2018-10-18T21:15:09.131Z,94.78
2018-10-18T21:17:37.605Z,93.07
2018-10-18T21:20:06.617Z,93.26
2018-10-18T21:22:35.444Z,93.20
2018-10-18T21:25:04.344Z,93.25
2018-10-18T21:27:33.192Z,92.65
2018-10-18T21:30:01.848Z,93.20
2018-10-18T21:32:30.424Z,92.79
2018-10-18T21:34:59.287Z,93.69
2018-10-18T21:37:27.838Z,93.13
2018-10-18T21:39:56.482Z,94.02
2018-10-18T21:42:25.172Z,93.76
2018-10-18T21:44:54.485Z,94.25
2018-10-18T21:47:23.592Z,93.78
2018-10-18T21:49:52.485Z,93.58
2018-10-18T21:52:21.133Z,94.71
2018-10-18T21:54:49.736Z,94.32
2018-10-18T21:57:18.477Z,93.28
2018-10-18T21:59:47.166Z,93.23
2018-10-18T22:02:15.748Z,93.61
2018-10-18T22:04:44.484Z,94.60
2018-10-18T22:07:13.073Z,94.96
2018-10-18T22:09:41.654Z,95.26
2018-10-18T22:12:10.290Z,94.58
2018-10-18T22:14:38.906Z,96.14
2018-10-18T22:17:07.516Z,95.52
2018-10-18T22:19:36.370Z,95.35
2018-10-18T22:22:05.124Z,94.64
2018-10-18T22:24:33.728Z,95.75
2018-10-18T22:27:02.554Z,95.13
2018-10-18T22:29:31.120Z,94.98
2018-10-18T22:31:59.702Z,95.50
2018-10-18T22:34:28.441Z,95.50
2018-10-18T22:36:56.997Z,95.12
2018-10-18T22:39:25.625Z,95.45
2018-10-18T22:41:54.448Z,94.93
2018-10-18T22:44:22.984Z,95.42
2018-10-18T22:46:51.600Z,95.98
2018-10-18T22:49:20.429Z,95.60
2018-10-18T22:51:48.980Z,97.67
2018-10-18T22:54:17.541Z,94.86
2018-10-18T22:56:46.230Z,95.60
2018-10-18T22:59:14.813Z,95.74
2018-10-18T23:01:43.596Z,95.13
2018-10-18T23:04:12.160Z,94.47
2018-10-18T23:06:40.776Z,91.88
2018-10-18T23:09:11.638Z,91.68
2018-10-18T23:11:40.257Z,93.08
2018-10-18T23:14:09.849Z,93.76
2018-10-18T23:16:39.179Z,92.90
2018-10-18T23:19:08.857Z,92.36
2018-10-18T23:21:37.409Z,92.83
2018-10-18T23:24:06.341Z,93.46
2018-10-18T23:26:34.921Z,92.87
2018-10-18T23:29:03.494Z,93.48
2018-10-18T23:31:32.081Z,92.44
2018-10-18T23:34:00.649Z,92.82
2018-10-18T23:36:29.256Z,92.96
2018-10-18T23:38:57.902Z,94.12
2018-10-18T23:41:26.514Z,93.29
2018-10-18T23:43:55.201Z,94.46
2018-10-18T23:46:23.841Z,94.23
2018-10-18T23:48:52.488Z,93.28
2018-10-18T23:51:21.025Z,94.36
2018-10-18T23:53:49.685Z,95.60
2018-10-18T23:56:18.446Z,94.11
2018-10-18T23:58:47.049Z,94.58
